sensor_id;sensor_type;location;lat;lon;timestamp;pressure;altitude;pressure_sealevel;temperature;humidity
62600;BME280;48671;48.922;2.346;2023-02-28T00:00:47;102491.91;;;3.85;49.51
62600;BME280;48671;48.922;2.346;2023-02-28T00:03:13;102508.34;;;3.91;49.59
62600;BME280;48671;48.922;2.346;2023-02-28T00:05:38;102503.94;;;3.86;49.83
62600;BME280;48671;48.922;2.346;2023-02-28T00:08:04;102484.00;;;3.74;49.10
62600;BME280;48671;48.922;2.346;2023-02-28T00:10:31;102498.78;;;3.83;49.55
62600;BME280;48671;48.922;2.346;2023-02-28T00:13:03;102506.50;;;3.86;49.38
62600;BME280;48671;48.922;2.346;2023-02-28T00:15:29;102490.78;;;3.69;49.63
62600;BME280;48671;48.922;2.346;2023-02-28T00:17:54;102513.25;;;3.76;49.73
62600;BME280;48671;48.922;2.346;2023-02-28T00:20:20;102515.88;;;3.81;49.71
62600;BME280;48671;48.922;2.346;2023-02-28T00:22:48;102518.41;;;3.79;49.65
62600;BME280;48671;48.922;2.346;2023-02-28T00:25:17;102501.84;;;3.65;50.03
62600;BME280;48671;48.922;2.346;2023-02-28T00:27:43;102508.13;;;3.79;50.11
62600;BME280;48671;48.922;2.346;2023-02-28T00:30:15;102491.56;;;3.63;49.67
62600;BME280;48671;48.922;2.346;2023-02-28T00:32:40;102514.91;;;3.75;49.78
62600;BME280;48671;48.922;2.346;2023-02-28T00:35:06;102502.72;;;3.64;49.83
62600;BME280;48671;48.922;2.346;2023-02-28T00:37:32;102507.91;;;3.67;49.79
62600;BME280;48671;48.922;2.346;2023-02-28T00:39:58;102521.53;;;3.63;50.16
62600;BME280;48671;48.922;2.346;2023-02-28T00:42:23;102496.41;;;3.48;49.90
62600;BME280;48671;48.922;2.346;2023-02-28T00:44:49;102522.38;;;3.60;50.40
62600;BME280;48671;48.922;2.346;2023-02-28T00:47:14;102499.75;;;3.44;50.88
62600;BME280;48671;48.922;2.346;2023-02-28T00:49:40;102504.78;;;3.38;50.54
62600;BME280;48671;48.922;2.346;2023-02-28T00:52:05;102530.84;;;3.55;50.53
62600;BME280;48671;48.922;2.346;2023-02-28T00:54:31;102514.34;;;3.45;50.95
62600;BME280;48671;48.922;2.346;2023-02-28T00:56:56;102508.13;;;3.34;50.39
62600;BME280;48671;48.922;2.346;2023-02-28T00:59:21;102535.84;;;3.47;50.98
62600;BME280;48671;48.922;2.346;2023-02-28T01:01:47;102534.88;;;3.42;50.72
62600;BME280;48671;48.922;2.346;2023-02-28T01:04:13;102519.19;;;3.29;51.23
62600;BME280;48671;48.922;2.346;2023-02-28T01:06:39;102530.34;;;3.30;50.66
62600;BME280;48671;48.922;2.346;2023-02-28T01:09:05;102539.88;;;3.34;50.28
62600;BME280;48671;48.922;2.346;2023-02-28T01:11:32;102525.38;;;3.38;50.47
62600;BME280;48671;48.922;2.346;2023-02-28T01:13:58;102534.81;;;3.39;51.03
62600;BME280;48671;48.922;2.346;2023-02-28T01:16:24;102531.44;;;3.41;50.39
62600;BME280;48671;48.922;2.346;2023-02-28T01:18:50;102544.19;;;3.35;51.00
62600;BME280;48671;48.922;2.346;2023-02-28T01:21:17;102537.31;;;3.36;50.22
62600;BME280;48671;48.922;2.346;2023-02-28T01:23:43;102522.47;;;3.22;51.05
62600;BME280;48671;48.922;2.346;2023-02-28T01:26:11;102524.97;;;3.19;50.27
62600;BME280;48671;48.922;2.346;2023-02-28T01:28:37;102544.81;;;3.25;50.97
62600;BME280;48671;48.922;2.346;2023-02-28T01:31:03;102542.25;;;3.25;50.75
62600;BME280;48671;48.922;2.346;2023-02-28T01:33:28;102536.97;;;3.17;50.67
62600;BME280;48671;48.922;2.346;2023-02-28T01:35:58;102540.41;;;3.19;50.73
62600;BME280;48671;48.922;2.346;2023-02-28T01:38:24;102527.41;;;3.13;50.57
62600;BME280;48671;48.922;2.346;2023-02-28T01:40:50;102542.09;;;3.17;51.01
62600;BME280;48671;48.922;2.346;2023-02-28T01:43:21;102537.75;;;3.15;50.90
62600;BME280;48671;48.922;2.346;2023-02-28T01:45:46;102531.69;;;3.11;50.69
62600;BME280;48671;48.922;2.346;2023-02-28T01:48:12;102515.94;;;2.97;51.31
62600;BME280;48671;48.922;2.346;2023-02-28T01:50:41;102507.22;;;2.91;50.79
62600;BME280;48671;48.922;2.346;2023-02-28T01:53:13;102515.91;;;2.94;51.22
62600;BME280;48671;48.922;2.346;2023-02-28T01:55:40;102515.00;;;2.94;51.76
62600;BME280;48671;48.922;2.346;2023-02-28T01:58:08;102512.28;;;2.88;51.71
62600;BME280;48671;48.922;2.346;2023-02-28T02:00:37;102496.00;;;2.86;50.48
62600;BME280;48671;48.922;2.346;2023-02-28T02:03:08;102518.47;;;2.94;51.59
62600;BME280;48671;48.922;2.346;2023-02-28T02:05:37;102521.06;;;2.96;51.73
62600;BME280;48671;48.922;2.346;2023-02-28T02:08:06;102527.06;;;2.96;50.97
62600;BME280;48671;48.922;2.346;2023-02-28T02:10:39;102516.78;;;2.96;50.90
62600;BME280;48671;48.922;2.346;2023-02-28T02:13:36;102519.41;;;2.98;51.85
62600;BME280;48671;48.922;2.346;2023-02-28T02:16:11;102520.22;;;2.97;50.76
62600;BME280;48671;48.922;2.346;2023-02-28T02:39:02;102500.13;;;2.79;51.63
62600;BME280;48671;48.922;2.346;2023-02-28T02:41:08;102502.66;;;2.77;51.18
62600;BME280;48671;48.922;2.346;2023-02-28T02:43:50;102507.84;;;2.79;51.60
62600;BME280;48671;48.922;2.346;2023-02-28T02:46:20;102498.28;;;2.73;50.93
62600;BME280;48671;48.922;2.346;2023-02-28T02:48:48;102500.75;;;2.69;51.29
62600;BME280;48671;48.922;2.346;2023-02-28T02:51:17;102503.44;;;2.73;51.47
62600;BME280;48671;48.922;2.346;2023-02-28T02:54:02;102505.22;;;2.77;51.44
62600;BME280;48671;48.922;2.346;2023-02-28T02:56:32;102508.50;;;2.70;50.74
62600;BME280;48671;48.922;2.346;2023-02-28T02:59:04;102500.78;;;2.70;51.40
62600;BME280;48671;48.922;2.346;2023-02-28T03:01:33;102504.84;;;2.61;51.13
62600;BME280;48671;48.922;2.346;2023-02-28T03:04:07;102504.75;;;2.56;51.14
62600;BME280;48671;48.922;2.346;2023-02-28T03:06:33;102511.75;;;2.63;51.14
62600;BME280;48671;48.922;2.346;2023-02-28T03:09:00;102503.13;;;2.60;51.62
62600;BME280;48671;48.922;2.346;2023-02-28T03:11:25;102502.41;;;2.67;51.11
62600;BME280;48671;48.922;2.346;2023-02-28T03:14:09;102508.41;;;2.66;51.55
62600;BME280;48671;48.922;2.346;2023-02-28T03:19:33;102502.13;;;2.54;51.23
62600;BME280;48671;48.922;2.346;2023-02-28T03:22:12;102496.91;;;2.51;50.76
62600;BME280;48671;48.922;2.346;2023-02-28T03:25:06;102517.53;;;2.54;50.95
62600;BME280;48671;48.922;2.346;2023-02-28T03:33:05;102506.16;;;2.43;50.17
62600;BME280;48671;48.922;2.346;2023-02-28T03:35:36;102508.75;;;2.45;51.31
62600;BME280;48671;48.922;2.346;2023-02-28T03:38:10;102506.97;;;2.41;50.73
62600;BME280;48671;48.922;2.346;2023-02-28T03:40:43;102512.88;;;2.38;51.39
62600;BME280;48671;48.922;2.346;2023-02-28T03:43:15;102510.38;;;2.41;50.73
62600;BME280;48671;48.922;2.346;2023-02-28T03:45:43;102518.06;;;2.40;50.87
62600;BME280;48671;48.922;2.346;2023-02-28T03:48:15;102512.06;;;2.39;51.64
62600;BME280;48671;48.922;2.346;2023-02-28T03:50:46;102513.75;;;2.39;51.08
62600;BME280;48671;48.922;2.346;2023-02-28T03:53:25;102502.53;;;2.35;51.49
62600;BME280;48671;48.922;2.346;2023-02-28T03:55:59;102488.31;;;2.13;50.63
62600;BME280;48671;48.922;2.346;2023-02-28T03:58:37;102517.75;;;2.26;50.75
62600;BME280;48671;48.922;2.346;2023-02-28T04:01:11;102519.47;;;2.27;50.88
62600;BME280;48671;48.922;2.346;2023-02-28T04:03:39;102507.34;;;2.21;51.04
62600;BME280;48671;48.922;2.346;2023-02-28T04:06:07;102521.25;;;2.29;51.67
62600;BME280;48671;48.922;2.346;2023-02-28T04:08:34;102515.97;;;2.25;50.99
62600;BME280;48671;48.922;2.346;2023-02-28T04:11:19;102514.16;;;2.19;50.95
62600;BME280;48671;48.922;2.346;2023-02-28T04:13:46;102520.03;;;2.15;51.11
62600;BME280;48671;48.922;2.346;2023-02-28T04:16:11;102507.09;;;2.12;50.90
62600;BME280;48671;48.922;2.346;2023-02-28T04:18:37;102502.88;;;2.14;51.38
62600;BME280;48671;48.922;2.346;2023-02-28T04:21:03;102501.94;;;2.10;51.15
62600;BME280;48671;48.922;2.346;2023-02-28T04:23:30;102533.25;;;2.30;50.74
62600;BME280;48671;48.922;2.346;2023-02-28T04:25:55;102522.81;;;2.23;50.58
62600;BME280;48671;48.922;2.346;2023-02-28T04:28:20;102507.09;;;2.12;50.66
62600;BME280;48671;48.922;2.346;2023-02-28T04:30:46;102511.34;;;2.10;50.95
62600;BME280;48671;48.922;2.346;2023-02-28T04:33:11;102525.22;;;2.17;51.13
62600;BME280;48671;48.922;2.346;2023-02-28T04:35:36;102544.22;;;2.23;50.88
62600;BME280;48671;48.922;2.346;2023-02-28T04:38:02;102519.09;;;2.11;50.73
62600;BME280;48671;48.922;2.346;2023-02-28T04:40:27;102535.31;;;2.10;50.83
62600;BME280;48671;48.922;2.346;2023-02-28T04:42:52;102528.47;;;2.09;50.60
62600;BME280;48671;48.922;2.346;2023-02-28T04:45:18;102530.19;;;2.10;50.98
62600;BME280;48671;48.922;2.346;2023-02-28T04:47:43;102533.53;;;2.08;51.03
62600;BME280;48671;48.922;2.346;2023-02-28T04:50:09;102549.44;;;2.26;51.40
62600;BME280;48671;48.922;2.346;2023-02-28T04:52:34;102530.44;;;2.20;51.10
62600;BME280;48671;48.922;2.346;2023-02-28T04:54:59;102529.50;;;2.16;50.61
62600;BME280;48671;48.922;2.346;2023-02-28T04:57:25;102527.56;;;2.09;50.63
62600;BME280;48671;48.922;2.346;2023-02-28T04:59:50;102525.69;;;2.02;50.60
62600;BME280;48671;48.922;2.346;2023-02-28T05:02:15;102533.44;;;2.03;51.10
62600;BME280;48671;48.922;2.346;2023-02-28T05:04:41;102535.94;;;2.02;50.15
62600;BME280;48671;48.922;2.346;2023-02-28T05:07:06;102535.72;;;1.93;51.75
62600;BME280;48671;48.922;2.346;2023-02-28T05:09:32;102546.19;;;2.00;51.84
62600;BME280;48671;48.922;2.346;2023-02-28T05:11:58;102553.75;;;1.96;51.88
62600;BME280;48671;48.922;2.346;2023-02-28T05:14:23;102563.16;;;1.95;51.90
62600;BME280;48671;48.922;2.346;2023-02-28T05:16:49;102557.00;;;1.88;51.44
62600;BME280;48671;48.922;2.346;2023-02-28T05:19:14;102557.47;;;1.74;51.56
62600;BME280;48671;48.922;2.346;2023-02-28T05:21:41;102570.16;;;1.69;51.85
62600;BME280;48671;48.922;2.346;2023-02-28T05:24:13;102551.53;;;1.45;52.58
62600;BME280;48671;48.922;2.346;2023-02-28T05:26:41;102573.28;;;1.57;53.00
62600;BME280;48671;48.922;2.346;2023-02-28T05:29:06;102567.97;;;1.51;53.05
62600;BME280;48671;48.922;2.346;2023-02-28T05:31:32;102574.81;;;1.52;52.69
62600;BME280;48671;48.922;2.346;2023-02-28T05:33:58;102571.09;;;1.41;53.04
62600;BME280;48671;48.922;2.346;2023-02-28T05:36:23;102573.56;;;1.38;53.73
62600;BME280;48671;48.922;2.346;2023-02-28T05:38:49;102575.31;;;1.40;53.35
62600;BME280;48671;48.922;2.346;2023-02-28T05:41:16;102595.31;;;1.51;53.65
62600;BME280;48671;48.922;2.346;2023-02-28T05:43:41;102586.44;;;1.39;53.80
62600;BME280;48671;48.922;2.346;2023-02-28T05:46:09;102573.03;;;1.20;54.47
62600;BME280;48671;48.922;2.346;2023-02-28T05:48:35;102591.16;;;1.26;54.82
62600;BME280;48671;48.922;2.346;2023-02-28T05:51:02;102582.91;;;1.07;55.06
62600;BME280;48671;48.922;2.346;2023-02-28T05:53:28;102606.47;;;1.24;54.54
62600;BME280;48671;48.922;2.346;2023-02-28T05:55:54;102594.28;;;1.15;55.02
62600;BME280;48671;48.922;2.346;2023-02-28T05:58:19;102591.75;;;1.17;55.29
62600;BME280;48671;48.922;2.346;2023-02-28T06:00:45;102588.97;;;1.11;55.40
62600;BME280;48671;48.922;2.346;2023-02-28T06:03:10;102593.41;;;1.15;55.44
62600;BME280;48671;48.922;2.346;2023-02-28T06:05:36;102579.44;;;1.05;55.15
62600;BME280;48671;48.922;2.346;2023-02-28T06:08:01;102567.94;;;0.92;55.25
62600;BME280;48671;48.922;2.346;2023-02-28T06:10:26;102574.97;;;0.98;56.50
62600;BME280;48671;48.922;2.346;2023-02-28T06:12:52;102600.81;;;1.06;56.19
62600;BME280;48671;48.922;2.346;2023-02-28T06:15:17;102588.75;;;1.03;55.43
62600;BME280;48671;48.922;2.346;2023-02-28T06:17:43;102593.94;;;1.05;55.84
62600;BME280;48671;48.922;2.346;2023-02-28T06:20:10;102586.00;;;0.97;56.09
62600;BME280;48671;48.922;2.346;2023-02-28T06:22:38;102587.59;;;0.93;56.84
62600;BME280;48671;48.922;2.346;2023-02-28T06:25:04;102594.47;;;0.94;56.84
62600;BME280;48671;48.922;2.346;2023-02-28T06:27:31;102588.44;;;0.92;56.47
62600;BME280;48671;48.922;2.346;2023-02-28T06:29:57;102593.56;;;0.92;56.38
62600;BME280;48671;48.922;2.346;2023-02-28T06:32:22;102599.69;;;0.98;56.45
62600;BME280;48671;48.922;2.346;2023-02-28T06:34:48;102597.97;;;0.97;56.72
62600;BME280;48671;48.922;2.346;2023-02-28T06:37:14;102591.00;;;0.92;56.49
62600;BME280;48671;48.922;2.346;2023-02-28T06:39:39;102597.84;;;0.93;57.17
62600;BME280;48671;48.922;2.346;2023-02-28T06:42:05;102584.72;;;0.83;56.83
62600;BME280;48671;48.922;2.346;2023-02-28T06:44:30;102589.88;;;0.84;56.82
62600;BME280;48671;48.922;2.346;2023-02-28T06:47:01;102610.53;;;0.89;56.77
62600;BME280;48671;48.922;2.346;2023-02-28T06:49:29;102600.28;;;0.89;57.32
62600;BME280;48671;48.922;2.346;2023-02-28T06:51:55;102610.38;;;0.84;57.26
62600;BME280;48671;48.922;2.346;2023-02-28T06:54:20;102602.66;;;0.83;57.24
62600;BME280;48671;48.922;2.346;2023-02-28T06:56:46;102604.50;;;0.87;57.17
62600;BME280;48671;48.922;2.346;2023-02-28T06:59:12;102594.78;;;0.77;57.82
62600;BME280;48671;48.922;2.346;2023-02-28T07:01:38;102585.28;;;0.74;57.25
62600;BME280;48671;48.922;2.346;2023-02-28T07:04:05;102605.34;;;0.87;57.68
62600;BME280;48671;48.922;2.346;2023-02-28T07:06:30;102613.13;;;0.90;57.79
62600;BME280;48671;48.922;2.346;2023-02-28T07:08:56;102612.38;;;0.93;58.32
62600;BME280;48671;48.922;2.346;2023-02-28T07:11:23;102608.28;;;0.98;58.03
62600;BME280;48671;48.922;2.346;2023-02-28T07:13:53;102598.16;;;1.03;57.43
62600;BME280;48671;48.922;2.346;2023-02-28T07:16:19;102610.41;;;1.13;57.49
62600;BME280;48671;48.922;2.346;2023-02-28T07:18:45;102610.53;;;1.16;57.83
62600;BME280;48671;48.922;2.346;2023-02-28T07:21:10;102615.16;;;1.28;57.79
62600;BME280;48671;48.922;2.346;2023-02-28T07:23:36;102609.19;;;1.29;57.66
62600;BME280;48671;48.922;2.346;2023-02-28T07:26:06;102609.75;;;1.47;57.06
62600;BME280;48671;48.922;2.346;2023-02-28T07:28:31;102605.69;;;1.55;57.23
62600;BME280;48671;48.922;2.346;2023-02-28T07:30:57;102593.59;;;1.81;57.03
62600;BME280;48671;48.922;2.346;2023-02-28T07:33:22;102591.53;;;2.33;56.26
62600;BME280;48671;48.922;2.346;2023-02-28T07:35:49;102597.34;;;2.97;55.16
62600;BME280;48671;48.922;2.346;2023-02-28T07:38:15;102587.31;;;3.47;54.33
62600;BME280;48671;48.922;2.346;2023-02-28T07:40:40;102602.88;;;3.98;53.48
62600;BME280;48671;48.922;2.346;2023-02-28T07:43:06;102597.53;;;4.33;52.60
62600;BME280;48671;48.922;2.346;2023-02-28T07:45:32;102605.94;;;4.75;51.89
62600;BME280;48671;48.922;2.346;2023-02-28T07:47:59;102613.41;;;5.14;51.74
62600;BME280;48671;48.922;2.346;2023-02-28T07:50:25;102598.06;;;5.26;49.96
62600;BME280;48671;48.922;2.346;2023-02-28T07:52:52;102624.47;;;5.71;50.47
62600;BME280;48671;48.922;2.346;2023-02-28T07:55:18;102618.75;;;5.95;49.76
62600;BME280;48671;48.922;2.346;2023-02-28T07:57:43;102603.38;;;6.05;49.30
62600;BME280;48671;48.922;2.346;2023-02-28T08:00:10;102608.78;;;6.30;49.09
62600;BME280;48671;48.922;2.346;2023-02-28T08:02:36;102605.31;;;6.29;48.57
62600;BME280;48671;48.922;2.346;2023-02-28T08:05:02;102609.84;;;6.52;48.11
62600;BME280;48671;48.922;2.346;2023-02-28T08:07:27;102625.44;;;6.61;46.85
62600;BME280;48671;48.922;2.346;2023-02-28T08:09:53;102610.75;;;6.59;47.61
62600;BME280;48671;48.922;2.346;2023-02-28T08:12:18;102609.81;;;6.49;46.93
62600;BME280;48671;48.922;2.346;2023-02-28T08:14:44;102626.28;;;6.59;47.37
62600;BME280;48671;48.922;2.346;2023-02-28T08:17:10;102598.56;;;6.45;47.03
62600;BME280;48671;48.922;2.346;2023-02-28T08:19:36;102609.00;;;6.54;47.34
62600;BME280;48671;48.922;2.346;2023-02-28T08:22:01;102612.50;;;6.61;47.41
62600;BME280;48671;48.922;2.346;2023-02-28T08:24:27;102596.91;;;6.53;47.05
62600;BME280;48671;48.922;2.346;2023-02-28T08:26:52;102619.28;;;6.50;47.15
62600;BME280;48671;48.922;2.346;2023-02-28T08:29:17;102627.75;;;6.32;47.13
62600;BME280;48671;48.922;2.346;2023-02-28T08:31:43;102616.22;;;5.99;47.67
62600;BME280;48671;48.922;2.346;2023-02-28T08:34:09;102636.66;;;5.81;48.01
62600;BME280;48671;48.922;2.346;2023-02-28T08:36:36;102638.03;;;5.53;48.87
62600;BME280;48671;48.922;2.346;2023-02-28T08:39:01;102633.59;;;5.44;48.69
62600;BME280;48671;48.922;2.346;2023-02-28T08:41:27;102620.69;;;5.44;48.55
62600;BME280;48671;48.922;2.346;2023-02-28T08:43:52;102621.69;;;5.55;48.79
62600;BME280;48671;48.922;2.346;2023-02-28T08:46:18;102634.75;;;5.68;48.73
62600;BME280;48671;48.922;2.346;2023-02-28T08:48:44;102630.63;;;5.82;49.06
62600;BME280;48671;48.922;2.346;2023-02-28T08:51:15;102642.09;;;6.04;47.98
62600;BME280;48671;48.922;2.346;2023-02-28T08:53:44;102627.47;;;6.04;48.28
62600;BME280;48671;48.922;2.346;2023-02-28T08:56:13;102634.50;;;6.16;47.60
62600;BME280;48671;48.922;2.346;2023-02-28T08:58:40;102639.69;;;6.21;47.65
62600;BME280;48671;48.922;2.346;2023-02-28T09:01:26;102618.94;;;6.13;47.58
62600;BME280;48671;48.922;2.346;2023-02-28T09:03:53;102639.78;;;6.30;47.50
62600;BME280;48671;48.922;2.346;2023-02-28T09:06:21;102638.91;;;6.25;47.19
62600;BME280;48671;48.922;2.346;2023-02-28T09:08:46;102644.81;;;6.16;47.37
62600;BME280;48671;48.922;2.346;2023-02-28T09:11:12;102622.31;;;6.06;47.57
62600;BME280;48671;48.922;2.346;2023-02-28T09:13:38;102633.44;;;6.00;47.41
62600;BME280;48671;48.922;2.346;2023-02-28T09:16:07;102633.44;;;5.99;47.54
62600;BME280;48671;48.922;2.346;2023-02-28T09:18:36;102637.66;;;5.92;47.21
62600;BME280;48671;48.922;2.346;2023-02-28T09:21:04;102643.59;;;5.88;47.61
62600;BME280;48671;48.922;2.346;2023-02-28T09:23:30;102633.97;;;5.73;48.00
62600;BME280;48671;48.922;2.346;2023-02-28T09:25:55;102640.94;;;5.79;47.95
62600;BME280;48671;48.922;2.346;2023-02-28T09:28:21;102645.31;;;5.86;47.71
62600;BME280;48671;48.922;2.346;2023-02-28T09:30:48;102635.06;;;5.92;48.66
62600;BME280;48671;48.922;2.346;2023-02-28T09:33:15;102629.22;;;6.05;48.28
62600;BME280;48671;48.922;2.346;2023-02-28T09:35:41;102640.44;;;6.10;47.57
62600;BME280;48671;48.922;2.346;2023-02-28T09:38:08;102637.03;;;6.15;47.14
62600;BME280;48671;48.922;2.346;2023-02-28T09:40:37;102634.44;;;6.13;47.44
62600;BME280;48671;48.922;2.346;2023-02-28T09:43:04;102613.72;;;6.07;47.26
62600;BME280;48671;48.922;2.346;2023-02-28T09:45:36;102625.91;;;6.19;47.17
62600;BME280;48671;48.922;2.346;2023-02-28T09:48:17;102628.72;;;6.43;47.29
62600;BME280;48671;48.922;2.346;2023-02-28T09:50:48;102634.88;;;6.59;46.28
62600;BME280;48671;48.922;2.346;2023-02-28T09:53:26;102620.25;;;6.58;46.05
62600;BME280;48671;48.922;2.346;2023-02-28T09:56:03;102615.03;;;6.56;45.77
62600;BME280;48671;48.922;2.346;2023-02-28T09:58:48;102627.31;;;6.80;45.79
62600;BME280;48671;48.922;2.346;2023-02-28T10:01:27;102621.28;;;6.83;45.75
62600;BME280;48671;48.922;2.346;2023-02-28T10:04:05;102630.03;;;6.97;45.03
62600;BME280;48671;48.922;2.346;2023-02-28T10:06:39;102615.38;;;7.01;45.07
62600;BME280;48671;48.922;2.346;2023-02-28T10:09:32;102629.31;;;7.24;44.12
62600;BME280;48671;48.922;2.346;2023-02-28T10:12:04;102630.22;;;7.31;43.59
62600;BME280;48671;48.922;2.346;2023-02-28T10:14:33;102623.31;;;7.32;43.53
62600;BME280;48671;48.922;2.346;2023-02-28T10:17:04;102620.75;;;7.38;44.36
62600;BME280;48671;48.922;2.346;2023-02-28T10:22:11;102607.09;;;7.66;43.09
62600;BME280;48671;48.922;2.346;2023-02-28T10:24:39;102607.97;;;7.76;43.07
62600;BME280;48671;48.922;2.346;2023-02-28T10:27:19;102610.59;;;7.85;42.92
62600;BME280;48671;48.922;2.346;2023-02-28T10:29:49;102607.19;;;7.95;41.46
62600;BME280;48671;48.922;2.346;2023-02-28T10:32:23;102601.09;;;7.86;41.56
62600;BME280;48671;48.922;2.346;2023-02-28T10:37:22;102595.94;;;7.96;42.65
62600;BME280;48671;48.922;2.346;2023-02-28T10:39:48;102578.69;;;8.12;42.16
62600;BME280;48671;48.922;2.346;2023-02-28T10:42:28;102596.03;;;8.42;40.71
62600;BME280;48671;48.922;2.346;2023-02-28T10:45:07;102585.66;;;8.58;40.46
62600;BME280;48671;48.922;2.346;2023-02-28T10:47:41;102581.34;;;8.71;39.41
62600;BME280;48671;48.922;2.346;2023-02-28T10:56:05;102571.66;;;9.35;39.94
62600;BME280;48671;48.922;2.346;2023-02-28T10:59:00;102574.25;;;9.34;38.35
62600;BME280;48671;48.922;2.346;2023-02-28T11:06:42;102550.94;;;9.14;38.39
62600;BME280;48671;48.922;2.346;2023-02-28T11:09:29;102555.19;;;9.33;37.22
62600;BME280;48671;48.922;2.346;2023-02-28T11:11:55;102558.69;;;9.29;36.05
62600;BME280;48671;48.922;2.346;2023-02-28T11:14:47;102535.47;;;8.83;37.21
62600;BME280;48671;48.922;2.346;2023-02-28T11:17:21;102557.94;;;8.86;37.20
62600;BME280;48671;48.922;2.346;2023-02-28T11:19:51;102556.16;;;9.05;36.92
62600;BME280;48671;48.922;2.346;2023-02-28T11:22:24;102542.28;;;9.12;35.91
62600;BME280;48671;48.922;2.346;2023-02-28T11:24:55;102523.22;;;9.18;36.69
62600;BME280;48671;48.922;2.346;2023-02-28T11:29:59;102541.97;;;9.81;35.88
62600;BME280;48671;48.922;2.346;2023-02-28T11:32:27;102537.56;;;9.89;35.90
62600;BME280;48671;48.922;2.346;2023-02-28T11:37:34;102545.44;;;9.78;34.08
62600;BME280;48671;48.922;2.346;2023-02-28T11:40:00;102537.00;;;9.40;32.31
62600;BME280;48671;48.922;2.346;2023-02-28T11:45:29;102518.88;;;9.24;33.59
62600;BME280;48671;48.922;2.346;2023-02-28T11:48:12;102521.44;;;9.32;33.56
62600;BME280;48671;48.922;2.346;2023-02-28T11:53:22;102514.34;;;9.60;34.01
62600;BME280;48671;48.922;2.346;2023-02-28T11:56:05;102511.59;;;9.88;33.42
62600;BME280;48671;48.922;2.346;2023-02-28T12:01:32;102509.81;;;9.94;33.41
62600;BME280;48671;48.922;2.346;2023-02-28T12:09:46;102505.16;;;8.90;34.49
62600;BME280;48671;48.922;2.346;2023-02-28T12:12:50;102500.81;;;8.86;35.11
62600;BME280;48671;48.922;2.346;2023-02-28T12:21:34;102477.56;;;8.55;34.34
62600;BME280;48671;48.922;2.346;2023-02-28T12:24:18;102475.81;;;8.56;34.95
62600;BME280;48671;48.922;2.346;2023-02-28T12:26:50;102462.00;;;8.52;34.82
62600;BME280;48671;48.922;2.346;2023-02-28T12:29:29;102465.44;;;8.53;34.43
62600;BME280;48671;48.922;2.346;2023-02-28T12:32:04;102458.44;;;8.79;34.12
62600;BME280;48671;48.922;2.346;2023-02-28T12:34:36;102460.16;;;8.88;34.52
62600;BME280;48671;48.922;2.346;2023-02-28T12:37:14;102450.59;;;9.04;34.65
62600;BME280;48671;48.922;2.346;2023-02-28T12:39:44;102458.38;;;8.98;33.84
62600;BME280;48671;48.922;2.346;2023-02-28T12:44:54;102446.38;;;8.80;34.68
62600;BME280;48671;48.922;2.346;2023-02-28T12:47:21;102448.13;;;8.65;34.11
62600;BME280;48671;48.922;2.346;2023-02-28T12:49:58;102449.03;;;8.48;34.61
62600;BME280;48671;48.922;2.346;2023-02-28T12:52:35;102450.78;;;8.41;34.93
62600;BME280;48671;48.922;2.346;2023-02-28T12:55:14;102442.97;;;8.33;34.96
62600;BME280;48671;48.922;2.346;2023-02-28T12:57:49;102443.84;;;8.35;35.32
62600;BME280;48671;48.922;2.346;2023-02-28T13:00:23;102425.72;;;8.28;35.28
62600;BME280;48671;48.922;2.346;2023-02-28T13:02:54;102440.41;;;8.42;35.11
62600;BME280;48671;48.922;2.346;2023-02-28T13:10:52;102424.84;;;8.07;34.89
62600;BME280;48671;48.922;2.346;2023-02-28T13:13:23;102434.34;;;8.43;35.51
62600;BME280;48671;48.922;2.346;2023-02-28T13:16:03;102423.06;;;8.64;34.14
62600;BME280;48671;48.922;2.346;2023-02-28T13:18:35;102423.13;;;8.44;33.53
62600;BME280;48671;48.922;2.346;2023-02-28T13:21:03;102419.59;;;8.56;34.68
62600;BME280;48671;48.922;2.346;2023-02-28T13:26:16;102409.94;;;8.98;34.10
62600;BME280;48671;48.922;2.346;2023-02-28T13:31:16;102399.16;;;9.58;32.98
62600;BME280;48671;48.922;2.346;2023-02-28T13:46:28;102406.13;;;9.53;32.17
62600;BME280;48671;48.922;2.346;2023-02-28T13:48:53;102402.69;;;9.49;32.91
62600;BME280;48671;48.922;2.346;2023-02-28T13:51:46;102402.78;;;9.37;33.05
62600;BME280;48671;48.922;2.346;2023-02-28T14:00:07;102395.72;;;9.54;32.07
62600;BME280;48671;48.922;2.346;2023-02-28T14:05:45;102393.00;;;9.71;31.88
62600;BME280;48671;48.922;2.346;2023-02-28T14:08:20;102390.38;;;9.73;31.74
62600;BME280;48671;48.922;2.346;2023-02-28T14:10:49;102387.94;;;9.56;32.30
62600;BME280;48671;48.922;2.346;2023-02-28T14:16:03;102394.97;;;9.37;32.19
62600;BME280;48671;48.922;2.346;2023-02-28T14:18:34;102390.66;;;9.34;32.22
62600;BME280;48671;48.922;2.346;2023-02-28T14:21:11;102397.75;;;9.09;31.48
62600;BME280;48671;48.922;2.346;2023-02-28T14:26:37;102398.09;;;9.80;31.36
62600;BME280;48671;48.922;2.346;2023-02-28T14:29:36;102389.88;;;10.31;30.43
62600;BME280;48671;48.922;2.346;2023-02-28T14:37:48;102377.06;;;10.85;30.37
62600;BME280;48671;48.922;2.346;2023-02-28T14:40:30;102376.53;;;11.25;29.79
62600;BME280;48671;48.922;2.346;2023-02-28T14:43:03;102379.88;;;11.32;29.05
62600;BME280;48671;48.922;2.346;2023-02-28T14:45:33;102381.13;;;11.06;29.07
62600;BME280;48671;48.922;2.346;2023-02-28T14:48:01;102381.84;;;10.51;28.95
62600;BME280;48671;48.922;2.346;2023-02-28T14:50:38;102383.19;;;10.02;29.23
62600;BME280;48671;48.922;2.346;2023-02-28T14:53:03;102379.81;;;9.94;29.70
62600;BME280;48671;48.922;2.346;2023-02-28T14:55:35;102374.25;;;10.31;29.61
62600;BME280;48671;48.922;2.346;2023-02-28T14:58:05;102375.72;;;10.55;28.29
62600;BME280;48671;48.922;2.346;2023-02-28T15:00:36;102373.03;;;10.61;28.71
62600;BME280;48671;48.922;2.346;2023-02-28T15:03:33;102380.84;;;10.63;28.86
62600;BME280;48671;48.922;2.346;2023-02-28T15:06:00;102374.72;;;10.65;28.94
62600;BME280;48671;48.922;2.346;2023-02-28T15:08:27;102377.97;;;10.83;28.68